sensor_id;sensor_type;location;lat;lon;timestamp;P1;durP1;ratioP1;P2;durP2;ratioP2
479;SDS011;226;48.606;9.096;2023-10-19T00:02:07;16.37;;;9.83;;
479;SDS011;226;48.606;9.096;2023-10-19T00:04:35;21.87;;;10.90;;
479;SDS011;226;48.606;9.096;2023-10-19T00:07:04;13.93;;;9.83;;
479;SDS011;226;48.606;9.096;2023-10-19T00:09:34;18.77;;;11.40;;
479;SDS011;226;48.606;9.096;2023-10-19T00:12:06;17.53;;;10.80;;
479;SDS011;226;48.606;9.096;2023-10-19T00:14:36;16.03;;;10.57;;
479;SDS011;226;48.606;9.096;2023-10-19T00:17:03;15.83;;;9.30;;
479;SDS011;226;48.606;9.096;2023-10-19T00:19:37;18.47;;;10.47;;
479;SDS011;226;48.606;9.096;2023-10-19T00:22:07;19.57;;;11.60;;
479;SDS011;226;48.606;9.096;2023-10-19T00:24:40;17.00;;;11.67;;
479;SDS011;226;48.606;9.096;2023-10-19T00:27:09;17.67;;;11.47;;
479;SDS011;226;48.606;9.096;2023-10-19T00:29:42;14.83;;;9.47;;
479;SDS011;226;48.606;9.096;2023-10-19T00:32:15;15.57;;;9.77;;
479;SDS011;226;48.606;9.096;2023-10-19T00:34:45;14.30;;;9.20;;
479;SDS011;226;48.606;9.096;2023-10-19T00:37:18;21.80;;;12.40;;
479;SDS011;226;48.606;9.096;2023-10-19T00:39:53;21.43;;;10.67;;
479;SDS011;226;48.606;9.096;2023-10-19T00:42:24;20.37;;;10.80;;
479;SDS011;226;48.606;9.096;2023-10-19T00:44:58;21.90;;;11.30;;
479;SDS011;226;48.606;9.096;2023-10-19T00:47:31;20.17;;;11.57;;
479;SDS011;226;48.606;9.096;2023-10-19T00:50:07;18.53;;;10.10;;
479;SDS011;226;48.606;9.096;2023-10-19T00:52:41;22.30;;;10.97;;
479;SDS011;226;48.606;9.096;2023-10-19T00:55:16;17.10;;;9.53;;
479;SDS011;226;48.606;9.096;2023-10-19T00:57:49;12.40;;;9.80;;
479;SDS011;226;48.606;9.096;2023-10-19T01:00:20;16.27;;;9.00;;
479;SDS011;226;48.606;9.096;2023-10-19T01:02:57;15.40;;;10.50;;
479;SDS011;226;48.606;9.096;2023-10-19T01:05:32;15.93;;;9.40;;
479;SDS011;226;48.606;9.096;2023-10-19T01:08:03;18.97;;;11.00;;
479;SDS011;226;48.606;9.096;2023-10-19T01:10:45;23.60;;;9.80;;
479;SDS011;226;48.606;9.096;2023-10-19T01:13:20;16.30;;;9.80;;
479;SDS011;226;48.606;9.096;2023-10-19T01:15:53;15.27;;;9.13;;
479;SDS011;226;48.606;9.096;2023-10-19T01:18:22;14.63;;;9.57;;
479;SDS011;226;48.606;9.096;2023-10-19T01:20:55;13.50;;;8.90;;
479;SDS011;226;48.606;9.096;2023-10-19T01:23:25;15.17;;;10.03;;
479;SDS011;226;48.606;9.096;2023-10-19T01:25:56;17.70;;;10.47;;
479;SDS011;226;48.606;9.096;2023-10-19T01:28:32;15.00;;;10.07;;
479;SDS011;226;48.606;9.096;2023-10-19T01:31:14;16.63;;;9.63;;
479;SDS011;226;48.606;9.096;2023-10-19T01:33:49;16.33;;;10.43;;
479;SDS011;226;48.606;9.096;2023-10-19T01:36:20;21.70;;;10.23;;
479;SDS011;226;48.606;9.096;2023-10-19T01:38:56;22.13;;;11.53;;
479;SDS011;226;48.606;9.096;2023-10-19T01:41:28;22.47;;;9.60;;
479;SDS011;226;48.606;9.096;2023-10-19T01:43:57;19.70;;;10.73;;
479;SDS011;226;48.606;9.096;2023-10-19T01:46:31;23.70;;;10.03;;
479;SDS011;226;48.606;9.096;2023-10-19T01:49:01;19.57;;;11.83;;
479;SDS011;226;48.606;9.096;2023-10-19T01:51:30;16.27;;;9.77;;
479;SDS011;226;48.606;9.096;2023-10-19T01:54:06;21.47;;;10.20;;
479;SDS011;226;48.606;9.096;2023-10-19T01:56:35;16.33;;;10.03;;
479;SDS011;226;48.606;9.096;2023-10-19T01:59:05;11.93;;;8.30;;
479;SDS011;226;48.606;9.096;2023-10-19T02:01:34;13.83;;;8.63;;
479;SDS011;226;48.606;9.096;2023-10-19T02:04:05;15.80;;;9.90;;
479;SDS011;226;48.606;9.096;2023-10-19T02:06:35;15.83;;;9.20;;
479;SDS011;226;48.606;9.096;2023-10-19T02:09:06;17.60;;;9.20;;
479;SDS011;226;48.606;9.096;2023-10-19T02:11:44;15.20;;;7.63;;
479;SDS011;226;48.606;9.096;2023-10-19T02:14:14;15.83;;;9.30;;
479;SDS011;226;48.606;9.096;2023-10-19T02:16:42;18.07;;;8.67;;
479;SDS011;226;48.606;9.096;2023-10-19T02:19:10;14.40;;;9.00;;
479;SDS011;226;48.606;9.096;2023-10-19T02:21:38;15.80;;;8.30;;
479;SDS011;226;48.606;9.096;2023-10-19T02:24:08;11.23;;;7.77;;
479;SDS011;226;48.606;9.096;2023-10-19T02:26:41;19.67;;;8.70;;
479;SDS011;226;48.606;9.096;2023-10-19T02:29:10;17.53;;;8.90;;
479;SDS011;226;48.606;9.096;2023-10-19T02:31:39;14.33;;;8.27;;
479;SDS011;226;48.606;9.096;2023-10-19T02:34:08;14.20;;;8.27;;
479;SDS011;226;48.606;9.096;2023-10-19T02:36:37;11.57;;;7.50;;
479;SDS011;226;48.606;9.096;2023-10-19T02:39:08;22.67;;;8.30;;
479;SDS011;226;48.606;9.096;2023-10-19T02:41:36;11.27;;;7.80;;
479;SDS011;226;48.606;9.096;2023-10-19T02:44:07;14.30;;;8.03;;
479;SDS011;226;48.606;9.096;2023-10-19T02:46:36;14.60;;;7.80;;
479;SDS011;226;48.606;9.096;2023-10-19T02:49:06;13.67;;;7.60;;
479;SDS011;226;48.606;9.096;2023-10-19T02:51:38;14.37;;;7.67;;
479;SDS011;226;48.606;9.096;2023-10-19T02:54:07;14.40;;;8.10;;
479;SDS011;226;48.606;9.096;2023-10-19T02:56:42;9.10;;;6.30;;
479;SDS011;226;48.606;9.096;2023-10-19T02:59:13;13.00;;;6.73;;
479;SDS011;226;48.606;9.096;2023-10-19T03:01:42;9.93;;;7.97;;
479;SDS011;226;48.606;9.096;2023-10-19T03:04:12;10.80;;;7.00;;
479;SDS011;226;48.606;9.096;2023-10-19T03:06:39;12.83;;;6.10;;
479;SDS011;226;48.606;9.096;2023-10-19T03:09:09;11.43;;;7.03;;
479;SDS011;226;48.606;9.096;2023-10-19T03:11:40;11.47;;;6.80;;
479;SDS011;226;48.606;9.096;2023-10-19T03:14:08;13.10;;;7.13;;
479;SDS011;226;48.606;9.096;2023-10-19T03:16:35;9.57;;;5.93;;
479;SDS011;226;48.606;9.096;2023-10-19T03:19:07;8.83;;;6.00;;
479;SDS011;226;48.606;9.096;2023-10-19T03:21:35;8.03;;;5.07;;
479;SDS011;226;48.606;9.096;2023-10-19T03:24:10;8.60;;;5.97;;
479;SDS011;226;48.606;9.096;2023-10-19T03:26:39;13.67;;;6.53;;
479;SDS011;226;48.606;9.096;2023-10-19T03:29:15;9.20;;;5.70;;
479;SDS011;226;48.606;9.096;2023-10-19T03:31:44;7.97;;;5.63;;
479;SDS011;226;48.606;9.096;2023-10-19T03:34:14;5.60;;;5.00;;
479;SDS011;226;48.606;9.096;2023-10-19T03:36:43;8.50;;;6.60;;
479;SDS011;226;48.606;9.096;2023-10-19T03:39:13;7.60;;;5.63;;
479;SDS011;226;48.606;9.096;2023-10-19T03:41:41;9.43;;;5.77;;
479;SDS011;226;48.606;9.096;2023-10-19T03:44:10;12.73;;;6.60;;
479;SDS011;226;48.606;9.096;2023-10-19T03:46:45;9.50;;;5.73;;
479;SDS011;226;48.606;9.096;2023-10-19T03:49:24;9.40;;;6.53;;
479;SDS011;226;48.606;9.096;2023-10-19T03:51:59;10.93;;;6.30;;
479;SDS011;226;48.606;9.096;2023-10-19T03:54:48;9.70;;;6.00;;
479;SDS011;226;48.606;9.096;2023-10-19T03:57:17;9.77;;;6.13;;
479;SDS011;226;48.606;9.096;2023-10-19T03:59:51;9.07;;;6.33;;
479;SDS011;226;48.606;9.096;2023-10-19T04:02:23;10.13;;;6.30;;
479;SDS011;226;48.606;9.096;2023-10-19T04:04:54;11.63;;;6.10;;
479;SDS011;226;48.606;9.096;2023-10-19T04:07:24;9.53;;;5.70;;
479;SDS011;226;48.606;9.096;2023-10-19T04:09:54;11.80;;;6.60;;
479;SDS011;226;48.606;9.096;2023-10-19T04:12:36;9.77;;;5.93;;
479;SDS011;226;48.606;9.096;2023-10-19T04:15:09;12.33;;;7.03;;
479;SDS011;226;48.606;9.096;2023-10-19T04:17:40;13.20;;;7.03;;
479;SDS011;226;48.606;9.096;2023-10-19T04:20:09;10.07;;;6.07;;
479;SDS011;226;48.606;9.096;2023-10-19T04:22:54;16.03;;;5.97;;
479;SDS011;226;48.606;9.096;2023-10-19T04:25:25;13.20;;;6.90;;
479;SDS011;226;48.606;9.096;2023-10-19T04:27:56;10.00;;;6.90;;
479;SDS011;226;48.606;9.096;2023-10-19T04:30:24;8.03;;;5.00;;
479;SDS011;226;48.606;9.096;2023-10-19T04:32:53;8.53;;;5.40;;
479;SDS011;226;48.606;9.096;2023-10-19T04:35:24;10.60;;;6.20;;
479;SDS011;226;48.606;9.096;2023-10-19T04:37:56;10.50;;;6.80;;
479;SDS011;226;48.606;9.096;2023-10-19T04:40:27;15.47;;;7.47;;
479;SDS011;226;48.606;9.096;2023-10-19T04:42:55;11.20;;;6.63;;
479;SDS011;226;48.606;9.096;2023-10-19T04:45:24;13.10;;;7.17;;
479;SDS011;226;48.606;9.096;2023-10-19T04:47:53;11.87;;;6.83;;
479;SDS011;226;48.606;9.096;2023-10-19T04:50:22;8.00;;;5.53;;
479;SDS011;226;48.606;9.096;2023-10-19T04:52:50;11.77;;;6.70;;
479;SDS011;226;48.606;9.096;2023-10-19T04:55:18;11.83;;;6.40;;
479;SDS011;226;48.606;9.096;2023-10-19T04:57:48;8.27;;;5.40;;
479;SDS011;226;48.606;9.096;2023-10-19T05:00:17;11.50;;;7.00;;
479;SDS011;226;48.606;9.096;2023-10-19T05:02:47;11.70;;;6.77;;
479;SDS011;226;48.606;9.096;2023-10-19T05:05:18;11.97;;;6.17;;
479;SDS011;226;48.606;9.096;2023-10-19T05:07:47;12.13;;;6.70;;
479;SDS011;226;48.606;9.096;2023-10-19T05:10:15;11.87;;;6.03;;
479;SDS011;226;48.606;9.096;2023-10-19T05:12:43;7.40;;;5.93;;
479;SDS011;226;48.606;9.096;2023-10-19T05:15:13;10.93;;;6.43;;
479;SDS011;226;48.606;9.096;2023-10-19T05:17:42;13.27;;;6.63;;
479;SDS011;226;48.606;9.096;2023-10-19T05:20:10;8.70;;;6.50;;
479;SDS011;226;48.606;9.096;2023-10-19T05:22:39;13.50;;;6.63;;
479;SDS011;226;48.606;9.096;2023-10-19T05:25:07;10.43;;;5.40;;
479;SDS011;226;48.606;9.096;2023-10-19T05:27:35;13.13;;;6.63;;
479;SDS011;226;48.606;9.096;2023-10-19T05:30:06;10.40;;;6.83;;
479;SDS011;226;48.606;9.096;2023-10-19T05:32:38;14.60;;;6.63;;
479;SDS011;226;48.606;9.096;2023-10-19T05:35:06;10.40;;;6.20;;
479;SDS011;226;48.606;9.096;2023-10-19T05:37:39;9.07;;;6.07;;
479;SDS011;226;48.606;9.096;2023-10-19T05:40:08;12.40;;;6.67;;
479;SDS011;226;48.606;9.096;2023-10-19T05:42:41;12.90;;;6.33;;
479;SDS011;226;48.606;9.096;2023-10-19T05:45:09;13.03;;;7.50;;
479;SDS011;226;48.606;9.096;2023-10-19T05:47:40;11.03;;;5.70;;
479;SDS011;226;48.606;9.096;2023-10-19T05:50:10;14.93;;;6.90;;
479;SDS011;226;48.606;9.096;2023-10-19T05:52:41;16.53;;;7.30;;
479;SDS011;226;48.606;9.096;2023-10-19T05:55:09;13.17;;;7.40;;
479;SDS011;226;48.606;9.096;2023-10-19T05:57:38;16.57;;;8.33;;
479;SDS011;226;48.606;9.096;2023-10-19T06:00:08;10.90;;;6.43;;
479;SDS011;226;48.606;9.096;2023-10-19T06:02:42;11.83;;;6.50;;
479;SDS011;226;48.606;9.096;2023-10-19T06:05:12;10.50;;;7.00;;
479;SDS011;226;48.606;9.096;2023-10-19T06:07:42;15.10;;;6.33;;
479;SDS011;226;48.606;9.096;2023-10-19T06:10:10;17.13;;;6.30;;
479;SDS011;226;48.606;9.096;2023-10-19T06:12:42;7.83;;;5.20;;
479;SDS011;226;48.606;9.096;2023-10-19T06:15:11;9.10;;;6.33;;
479;SDS011;226;48.606;9.096;2023-10-19T06:17:39;9.67;;;5.87;;
479;SDS011;226;48.606;9.096;2023-10-19T06:20:11;12.80;;;6.63;;
479;SDS011;226;48.606;9.096;2023-10-19T06:22:50;9.10;;;5.17;;
479;SDS011;226;48.606;9.096;2023-10-19T06:25:20;7.87;;;5.40;;
479;SDS011;226;48.606;9.096;2023-10-19T06:27:50;11.70;;;5.57;;
479;SDS011;226;48.606;9.096;2023-10-19T06:30:19;10.33;;;5.37;;
479;SDS011;226;48.606;9.096;2023-10-19T06:32:51;14.93;;;5.93;;
479;SDS011;226;48.606;9.096;2023-10-19T06:35:21;10.30;;;5.90;;
479;SDS011;226;48.606;9.096;2023-10-19T06:37:49;11.70;;;6.30;;
479;SDS011;226;48.606;9.096;2023-10-19T06:40:18;13.33;;;5.70;;
479;SDS011;226;48.606;9.096;2023-10-19T06:42:46;26.17;;;9.30;;
479;SDS011;226;48.606;9.096;2023-10-19T06:45:16;13.93;;;8.20;;
479;SDS011;226;48.606;9.096;2023-10-19T06:47:46;11.40;;;6.93;;
479;SDS011;226;48.606;9.096;2023-10-19T06:50:17;10.13;;;6.53;;
479;SDS011;226;48.606;9.096;2023-10-19T06:52:47;9.60;;;7.10;;
479;SDS011;226;48.606;9.096;2023-10-19T06:55:15;8.73;;;5.63;;
479;SDS011;226;48.606;9.096;2023-10-19T06:57:46;13.30;;;5.27;;
479;SDS011;226;48.606;9.096;2023-10-19T07:00:17;7.17;;;5.30;;
479;SDS011;226;48.606;9.096;2023-10-19T07:02:47;7.47;;;4.93;;
479;SDS011;226;48.606;9.096;2023-10-19T07:05:18;8.00;;;5.90;;
479;SDS011;226;48.606;9.096;2023-10-19T07:07:49;8.10;;;6.17;;
479;SDS011;226;48.606;9.096;2023-10-19T07:10:18;10.50;;;5.47;;
479;SDS011;226;48.606;9.096;2023-10-19T07:12:47;5.37;;;4.50;;
479;SDS011;226;48.606;9.096;2023-10-19T07:15:18;8.53;;;5.20;;
479;SDS011;226;48.606;9.096;2023-10-19T07:17:46;9.00;;;5.20;;
479;SDS011;226;48.606;9.096;2023-10-19T07:20:15;8.07;;;5.63;;
479;SDS011;226;48.606;9.096;2023-10-19T07:22:54;11.80;;;6.30;;
479;SDS011;226;48.606;9.096;2023-10-19T07:25:23;13.00;;;6.37;;
479;SDS011;226;48.606;9.096;2023-10-19T07:27:52;10.50;;;6.27;;
479;SDS011;226;48.606;9.096;2023-10-19T07:30:21;11.43;;;7.00;;
479;SDS011;226;48.606;9.096;2023-10-19T07:32:53;12.70;;;7.00;;
479;SDS011;226;48.606;9.096;2023-10-19T07:35:25;12.00;;;5.43;;
479;SDS011;226;48.606;9.096;2023-10-19T07:37:55;8.97;;;5.90;;
479;SDS011;226;48.606;9.096;2023-10-19T07:40:24;10.20;;;7.20;;
479;SDS011;226;48.606;9.096;2023-10-19T07:42:52;18.80;;;7.83;;
479;SDS011;226;48.606;9.096;2023-10-19T07:45:21;6.93;;;5.97;;
479;SDS011;226;48.606;9.096;2023-10-19T07:47:49;6.93;;;5.47;;
479;SDS011;226;48.606;9.096;2023-10-19T07:50:18;9.90;;;6.53;;
479;SDS011;226;48.606;9.096;2023-10-19T07:52:49;6.90;;;4.90;;
479;SDS011;226;48.606;9.096;2023-10-19T07:55:20;5.93;;;5.40;;
479;SDS011;226;48.606;9.096;2023-10-19T07:57:50;7.80;;;6.40;;
479;SDS011;226;48.606;9.096;2023-10-19T08:00:18;9.87;;;6.80;;
479;SDS011;226;48.606;9.096;2023-10-19T08:02:47;13.10;;;6.90;;
479;SDS011;226;48.606;9.096;2023-10-19T08:05:16;11.00;;;7.00;;
479;SDS011;226;48.606;9.096;2023-10-19T08:07:46;11.23;;;7.20;;
479;SDS011;226;48.606;9.096;2023-10-19T08:10:15;11.40;;;7.13;;
479;SDS011;226;48.606;9.096;2023-10-19T08:12:46;9.13;;;7.43;;
479;SDS011;226;48.606;9.096;2023-10-19T08:15:16;11.73;;;6.90;;
479;SDS011;226;48.606;9.096;2023-10-19T08:17:47;7.40;;;6.70;;
479;SDS011;226;48.606;9.096;2023-10-19T08:20:17;13.70;;;7.30;;
479;SDS011;226;48.606;9.096;2023-10-19T08:22:50;9.33;;;6.50;;
479;SDS011;226;48.606;9.096;2023-10-19T08:25:19;8.40;;;7.17;;
479;SDS011;226;48.606;9.096;2023-10-19T08:27:49;11.63;;;8.37;;
479;SDS011;226;48.606;9.096;2023-10-19T08:30:19;11.13;;;8.03;;
479;SDS011;226;48.606;9.096;2023-10-19T08:32:53;12.23;;;9.40;;
479;SDS011;226;48.606;9.096;2023-10-19T08:35:23;13.87;;;8.57;;
479;SDS011;226;48.606;9.096;2023-10-19T08:37:52;8.63;;;5.73;;
479;SDS011;226;48.606;9.096;2023-10-19T08:40:21;9.17;;;5.97;;
479;SDS011;226;48.606;9.096;2023-10-19T08:42:54;7.37;;;5.53;;
479;SDS011;226;48.606;9.096;2023-10-19T08:45:23;4.77;;;4.27;;
479;SDS011;226;48.606;9.096;2023-10-19T08:47:53;4.97;;;4.50;;
479;SDS011;226;48.606;9.096;2023-10-19T08:50:24;8.17;;;5.77;;
479;SDS011;226;48.606;9.096;2023-10-19T08:52:53;4.80;;;4.37;;
479;SDS011;226;48.606;9.096;2023-10-19T08:55:23;5.17;;;4.10;;
479;SDS011;226;48.606;9.096;2023-10-19T08:58:12;7.33;;;4.97;;
479;SDS011;226;48.606;9.096;2023-10-19T09:00:43;8.27;;;6.00;;
479;SDS011;226;48.606;9.096;2023-10-19T09:03:14;6.60;;;4.50;;
479;SDS011;226;48.606;9.096;2023-10-19T09:05:44;12.03;;;5.17;;
479;SDS011;226;48.606;9.096;2023-10-19T09:08:14;5.00;;;3.73;;
479;SDS011;226;48.606;9.096;2023-10-19T09:10:43;13.53;;;4.13;;
479;SDS011;226;48.606;9.096;2023-10-19T09:13:14;5.70;;;3.87;;
479;SDS011;226;48.606;9.096;2023-10-19T09:15:46;5.63;;;3.70;;
479;SDS011;226;48.606;9.096;2023-10-19T09:18:16;4.60;;;4.03;;
479;SDS011;226;48.606;9.096;2023-10-19T09:20:47;5.70;;;3.17;;
479;SDS011;226;48.606;9.096;2023-10-19T09:23:20;3.10;;;2.80;;
479;SDS011;226;48.606;9.096;2023-10-19T09:25:49;8.40;;;3.37;;
479;SDS011;226;48.606;9.096;2023-10-19T09:28:21;3.63;;;3.33;;
479;SDS011;226;48.606;9.096;2023-10-19T09:30:50;4.33;;;2.90;;
479;SDS011;226;48.606;9.096;2023-10-19T09:33:20;4.40;;;3.67;;
479;SDS011;226;48.606;9.096;2023-10-19T09:35:50;5.10;;;3.17;;
479;SDS011;226;48.606;9.096;2023-10-19T09:38:20;3.20;;;3.00;;
479;SDS011;226;48.606;9.096;2023-10-19T09:40:49;2.73;;;2.53;;
479;SDS011;226;48.606;9.096;2023-10-19T09:43:20;2.57;;;2.23;;
479;SDS011;226;48.606;9.096;2023-10-19T09:45:55;2.80;;;2.50;;
479;SDS011;226;48.606;9.096;2023-10-19T09:48:26;4.70;;;2.57;;
479;SDS011;226;48.606;9.096;2023-10-19T09:50:55;4.60;;;3.50;;
479;SDS011;226;48.606;9.096;2023-10-19T09:53:25;3.47;;;3.10;;
479;SDS011;226;48.606;9.096;2023-10-19T09:55:56;2.30;;;2.10;;
479;SDS011;226;48.606;9.096;2023-10-19T09:58:29;3.10;;;2.73;;
479;SDS011;226;48.606;9.096;2023-10-19T10:01:01;4.70;;;3.00;;
479;SDS011;226;48.606;9.096;2023-10-19T10:03:42;2.93;;;2.50;;
479;SDS011;226;48.606;9.096;2023-10-19T10:06:11;7.80;;;5.10;;
479;SDS011;226;48.606;9.096;2023-10-19T10:08:41;7.43;;;3.80;;
479;SDS011;226;48.606;9.096;2023-10-19T10:11:16;5.80;;;4.20;;
479;SDS011;226;48.606;9.096;2023-10-19T10:13:46;3.07;;;2.87;;
479;SDS011;226;48.606;9.096;2023-10-19T10:16:19;3.80;;;3.50;;
479;SDS011;226;48.606;9.096;2023-10-19T10:18:50;2.90;;;2.70;;
479;SDS011;226;48.606;9.096;2023-10-19T10:21:22;4.23;;;2.50;;
479;SDS011;226;48.606;9.096;2023-10-19T10:23:51;4.60;;;3.17;;
479;SDS011;226;48.606;9.096;2023-10-19T10:26:22;2.60;;;2.23;;
479;SDS011;226;48.606;9.096;2023-10-19T10:29:09;4.30;;;2.87;;
479;SDS011;226;48.606;9.096;2023-10-19T10:31:43;3.80;;;2.43;;
479;SDS011;226;48.606;9.096;2023-10-19T10:37:11;6.83;;;4.17;;
479;SDS011;226;48.606;9.096;2023-10-19T10:39:40;6.97;;;3.00;;
479;SDS011;226;48.606;9.096;2023-10-19T10:42:11;3.13;;;2.83;;
479;SDS011;226;48.606;9.096;2023-10-19T10:44:42;3.80;;;2.87;;
479;SDS011;226;48.606;9.096;2023-10-19T10:47:16;4.37;;;2.60;;
479;SDS011;226;48.606;9.096;2023-10-19T10:49:49;2.90;;;2.60;;
479;SDS011;226;48.606;9.096;2023-10-19T10:52:26;2.97;;;2.77;;
479;SDS011;226;48.606;9.096;2023-10-19T10:54:56;3.50;;;2.90;;
479;SDS011;226;48.606;9.096;2023-10-19T10:57:30;4.03;;;2.93;;
479;SDS011;226;48.606;9.096;2023-10-19T11:00:05;9.40;;;3.17;;
479;SDS011;226;48.606;9.096;2023-10-19T11:02:34;2.87;;;2.67;;
479;SDS011;226;48.606;9.096;2023-10-19T11:05:06;2.77;;;2.57;;
479;SDS011;226;48.606;9.096;2023-10-19T11:07:40;6.03;;;3.90;;
479;SDS011;226;48.606;9.096;2023-10-19T11:10:29;4.90;;;3.20;;
479;SDS011;226;48.606;9.096;2023-10-19T11:13:01;4.43;;;2.70;;
479;SDS011;226;48.606;9.096;2023-10-19T11:15:31;11.30;;;2.63;;
479;SDS011;226;48.606;9.096;2023-10-19T11:18:00;4.50;;;3.13;;
479;SDS011;226;48.606;9.096;2023-10-19T11:20:29;3.50;;;2.80;;
479;SDS011;226;48.606;9.096;2023-10-19T11:22:57;5.17;;;2.90;;
479;SDS011;226;48.606;9.096;2023-10-19T11:25:27;6.47;;;4.00;;
479;SDS011;226;48.606;9.096;2023-10-19T11:27:57;11.33;;;3.90;;
479;SDS011;226;48.606;9.096;2023-10-19T11:30:27;4.07;;;3.13;;
479;SDS011;226;48.606;9.096;2023-10-19T11:32:57;6.37;;;3.57;;
479;SDS011;226;48.606;9.096;2023-10-19T11:35:28;4.53;;;3.57;;
479;SDS011;226;48.606;9.096;2023-10-19T11:37:58;5.90;;;3.50;;
479;SDS011;226;48.606;9.096;2023-10-19T11:40:29;6.10;;;3.70;;
479;SDS011;226;48.606;9.096;2023-10-19T11:42:57;4.80;;;3.60;;
479;SDS011;226;48.606;9.096;2023-10-19T11:45:27;4.30;;;3.40;;
479;SDS011;226;48.606;9.096;2023-10-19T11:47:57;5.93;;;3.40;;
479;SDS011;226;48.606;9.096;2023-10-19T11:50:26;4.83;;;3.20;;
479;SDS011;226;48.606;9.096;2023-10-19T11:52:54;9.80;;;3.53;;
479;SDS011;226;48.606;9.096;2023-10-19T11:55:23;5.27;;;3.77;;
479;SDS011;226;48.606;9.096;2023-10-19T11:57:52;4.40;;;3.97;;
479;SDS011;226;48.606;9.096;2023-10-19T12:00:20;6.20;;;3.90;;
479;SDS011;226;48.606;9.096;2023-10-19T12:02:51;5.97;;;3.37;;
479;SDS011;226;48.606;9.096;2023-10-19T12:05:21;3.53;;;3.23;;
479;SDS011;226;48.606;9.096;2023-10-19T12:07:50;9.50;;;3.50;;
479;SDS011;226;48.606;9.096;2023-10-19T12:10:18;7.53;;;3.77;;
479;SDS011;226;48.606;9.096;2023-10-19T12:12:52;3.10;;;2.80;;
479;SDS011;226;48.606;9.096;2023-10-19T12:15:27;4.07;;;2.87;;
479;SDS011;226;48.606;9.096;2023-10-19T12:17:57;3.97;;;3.00;;
479;SDS011;226;48.606;9.096;2023-10-19T12:20:27;9.27;;;3.80;;
479;SDS011;226;48.606;9.096;2023-10-19T12:22:57;4.87;;;3.20;;
479;SDS011;226;48.606;9.096;2023-10-19T12:25:27;4.33;;;3.40;;
479;SDS011;226;48.606;9.096;2023-10-19T12:28:18;6.17;;;3.17;;
479;SDS011;226;48.606;9.096;2023-10-19T12:30:46;6.30;;;3.63;;
479;SDS011;226;48.606;9.096;2023-10-19T12:33:15;5.20;;;4.17;;
479;SDS011;226;48.606;9.096;2023-10-19T12:35:44;8.10;;;5.07;;
479;SDS011;226;48.606;9.096;2023-10-19T12:38:16;4.70;;;4.20;;
479;SDS011;226;48.606;9.096;2023-10-19T12:40:44;10.00;;;5.07;;
479;SDS011;226;48.606;9.096;2023-10-19T12:43:13;5.30;;;4.20;;
479;SDS011;226;48.606;9.096;2023-10-19T12:45:45;3.40;;;3.10;;
479;SDS011;226;48.606;9.096;2023-10-19T12:48:20;3.87;;;2.90;;
479;SDS011;226;48.606;9.096;2023-10-19T12:50:49;5.40;;;2.90;;
479;SDS011;226;48.606;9.096;2023-10-19T12:53:17;4.60;;;3.07;;
479;SDS011;226;48.606;9.096;2023-10-19T12:55:48;7.80;;;3.90;;
479;SDS011;226;48.606;9.096;2023-10-19T12:58:17;8.23;;;3.50;;
479;SDS011;226;48.606;9.096;2023-10-19T13:00:46;5.70;;;3.23;;
479;SDS011;226;48.606;9.096;2023-10-19T13:03:15;3.63;;;3.33;;
479;SDS011;226;48.606;9.096;2023-10-19T13:05:45;4.30;;;3.90;;
479;SDS011;226;48.606;9.096;2023-10-19T13:08:15;5.40;;;4.70;;
479;SDS011;226;48.606;9.096;2023-10-19T13:10:46;6.90;;;4.20;;
479;SDS011;226;48.606;9.096;2023-10-19T13:13:18;4.67;;;4.07;;
479;SDS011;226;48.606;9.096;2023-10-19T13:15:50;4.00;;;3.60;;
479;SDS011;226;48.606;9.096;2023-10-19T13:18:20;5.80;;;3.63;;
479;SDS011;226;48.606;9.096;2023-10-19T13:20:55;5.03;;;3.17;;
479;SDS011;226;48.606;9.096;2023-10-19T13:23:25;4.40;;;3.80;;
479;SDS011;226;48.606;9.096;2023-10-19T13:25:56;3.50;;;3.20;;
479;SDS011;226;48.606;9.096;2023-10-19T13:28:39;3.87;;;3.27;;
479;SDS011;226;48.606;9.096;2023-10-19T13:31:07;4.27;;;3.83;;
479;SDS011;226;48.606;9.096;2023-10-19T13:33:36;4.13;;;3.37;;
479;SDS011;226;48.606;9.096;2023-10-19T13:36:04;6.20;;;4.00;;
479;SDS011;226;48.606;9.096;2023-10-19T13:38:34;7.93;;;4.30;;
479;SDS011;226;48.606;9.096;2023-10-19T13:41:02;4.40;;;3.57;;
479;SDS011;226;48.606;9.096;2023-10-19T13:43:34;8.83;;;4.10;;
479;SDS011;226;48.606;9.096;2023-10-19T13:46:04;8.07;;;4.87;;
479;SDS011;226;48.606;9.096;2023-10-19T13:48:33;6.10;;;4.10;;
479;SDS011;226;48.606;9.096;2023-10-19T13:51:02;5.97;;;4.93;;
479;SDS011;226;48.606;9.096;2023-10-19T13:53:41;7.00;;;5.27;;
479;SDS011;226;48.606;9.096;2023-10-19T13:56:12;7.00;;;5.90;;
479;SDS011;226;48.606;9.096;2023-10-19T13:58:41;7.63;;;5.70;;
479;SDS011;226;48.606;9.096;2023-10-19T14:01:10;8.43;;;5.77;;
479;SDS011;226;48.606;9.096;2023-10-19T14:03:43;13.33;;;6.30;;
479;SDS011;226;48.606;9.096;2023-10-19T14:06:12;8.83;;;5.70;;
479;SDS011;226;48.606;9.096;2023-10-19T14:08:43;9.73;;;5.67;;
479;SDS011;226;48.606;9.096;2023-10-19T14:11:11;7.77;;;5.43;;
479;SDS011;226;48.606;9.096;2023-10-19T14:13:39;9.90;;;5.17;;
479;SDS011;226;48.606;9.096;2023-10-19T14:16:09;8.83;;;5.97;;
479;SDS011;226;48.606;9.096;2023-10-19T14:18:38;6.73;;;5.77;;
479;SDS011;226;48.606;9.096;2023-10-19T14:21:13;11.20;;;5.67;;
479;SDS011;226;48.606;9.096;2023-10-19T14:23:43;9.93;;;5.50;;
479;SDS011;226;48.606;9.096;2023-10-19T14:26:12;5.13;;;4.63;;
479;SDS011;226;48.606;9.096;2023-10-19T14:28:41;8.83;;;5.90;;
479;SDS011;226;48.606;9.096;2023-10-19T14:31:09;7.67;;;5.63;;
479;SDS011;226;48.606;9.096;2023-10-19T14:33:38;7.63;;;5.53;;
479;SDS011;226;48.606;9.096;2023-10-19T14:36:08;8.40;;;5.70;;
479;SDS011;226;48.606;9.096;2023-10-19T14:38:37;10.30;;;6.40;;
479;SDS011;226;48.606;9.096;2023-10-19T14:41:07;9.63;;;7.40;;
479;SDS011;226;48.606;9.096;2023-10-19T14:43:36;7.90;;;7.07;;
479;SDS011;226;48.606;9.096;2023-10-19T14:46:05;10.70;;;6.90;;
479;SDS011;226;48.606;9.096;2023-10-19T14:48:33;8.07;;;6.00;;
479;SDS011;226;48.606;9.096;2023-10-19T14:51:03;8.17;;;6.00;;
479;SDS011;226;48.606;9.096;2023-10-19T14:53:32;5.67;;;4.80;;
479;SDS011;226;48.606;9.096;2023-10-19T14:56:00;7.60;;;4.50;;
479;SDS011;226;48.606;9.096;2023-10-19T14:58:30;9.73;;;6.77;;
479;SDS011;226;48.606;9.096;2023-10-19T15:00:58;10.53;;;7.33;;
479;SDS011;226;48.606;9.096;2023-10-19T15:03:27;10.13;;;6.67;;
479;SDS011;226;48.606;9.096;2023-10-19T15:05:56;6.40;;;5.33;;
479;SDS011;226;48.606;9.096;2023-10-19T15:08:26;7.20;;;5.13;;
479;SDS011;226;48.606;9.096;2023-10-19T15:10:57;7.00;;;5.20;;
479;SDS011;226;48.606;9.096;2023-10-19T15:13:26;6.10;;;5.17;;
479;SDS011;226;48.606;9.096;2023-10-19T15:15:56;6.50;;;5.43;;
479;SDS011;226;48.606;9.096;2023-10-19T15:18:24;6.27;;;5.23;;
479;SDS011;226;48.606;9.096;2023-10-19T15:20:52;7.40;;;5.60;;
479;SDS011;226;48.606;9.096;2023-10-19T15:23:20;7.80;;;6.00;;
479;SDS011;226;48.606;9.096;2023-10-19T15:25:49;8.33;;;5.80;;
479;SDS011;226;48.606;9.096;2023-10-19T15:28:17;15.70;;;9.70;;
479;SDS011;226;48.606;9.096;2023-10-19T15:30:46;19.37;;;8.20;;
479;SDS011;226;48.606;9.096;2023-10-19T15:33:17;10.73;;;8.00;;
479;SDS011;226;48.606;9.096;2023-10-19T15:35:47;8.37;;;5.93;;
479;SDS011;226;48.606;9.096;2023-10-19T15:38:15;11.00;;;7.93;;
479;SDS011;226;48.606;9.096;2023-10-19T15:40:43;13.10;;;8.77;;
479;SDS011;226;48.606;9.096;2023-10-19T15:43:11;18.43;;;12.40;;
479;SDS011;226;48.606;9.096;2023-10-19T15:45:39;17.07;;;11.17;;
479;SDS011;226;48.606;9.096;2023-10-19T15:48:10;18.57;;;11.77;;
479;SDS011;226;48.606;9.096;2023-10-19T15:50:40;19.00;;;11.50;;
479;SDS011;226;48.606;9.096;2023-10-19T15:53:08;18.70;;;9.90;;
479;SDS011;226;48.606;9.096;2023-10-19T15:55:37;14.60;;;7.97;;
479;SDS011;226;48.606;9.096;2023-10-19T15:58:05;11.73;;;6.93;;
479;SDS011;226;48.606;9.096;2023-10-19T16:00:35;13.00;;;7.97;;
479;SDS011;226;48.606;9.096;2023-10-19T16:03:05;15.10;;;8.50;;